Airfield :
LOGIN :

Register | Disclaimer

   EN    FR    IT 

 










Legend :    VFR   Marginal VFR   IFR   Intensive IFR   Very Intensive IFR
Visi :
Ceiling :
>= 8 km
>= 3000ft
5 to 8 km
1000 to 3000 ft
1500m to 5 km
500 to 1000 ft
800 to 1500m
200 to 500 ft
< 800m
< 200 ft
Symbols :   Thunderstorms  Fog  Heavy snow  Heavy precipitations  Wind > 20 kt
SIGMETs :     Misc.  Thunderstorms  Icing  Turbulence  Mountain Waves  Volcanic Ashes







- Airport Elevation : 83 ft
- IATA code : LHR
- Download approach charts


EGLL - London Heathrow

CURRENT METAR :
  • 220020Z AUTO 14005KT 9999 -RA FEW012/// OVC024/// //////CB 14/13 Q1006 TEMPO RA BKN012

EXPIRED METARs :
  • 212350Z AUTO 15006KT 9999 -RA BKN032/// //////TCU 15/13 Q1006 TEMPO RA
  • 212320Z AUTO 13007KT 9999 -RA BKN037 15/13 Q1006 TEMPO RA
  • 212250Z AUTO 15007KT 130V190 9999 FEW029/// //////CB 15/13 Q1006
  • 212220Z 14009KT 9999 -RA FEW009 15/14 Q1006 RERA TEMPO RA
  • 212150Z AUTO 21006KT 160V240 6000 -RA SCT008/// BKN022/// BKN030/// //////CB 16/15 Q1007 RERA TEMPO 4000 +RA

TAF TAF EGLL
Valid from the 22 at 00:00 until the 23 at 06:00 UTC


212252Z 2200/2306 15012KT 9999 SCT030
BECMG 2200/2203 21008KT
TEMPO 2200/2203 7000 RA BKN012
PROB30
TEMPO 2200/2202 18015G25KT 4000 +RA BKN008
TEMPO 2210/2224 7000 SHRA
PROB30
TEMPO 2213/2220 20015G25KT 3500 +SHRA BKN014 BKN030CB
No reported NOTAMs for that airfield.



MET'MAP, your aeronautical weather chart ! - Copyright ORBIFLY December 2007 - Disclaimer

ORBIFLY MET'MAP TEAM :

Programming & Development : Alexandra Zaïnal
Concept & Development : Baudouin d'Aumeries
Co-Development & Prog : Marc-Olivier Méhu
Technical & hardware support : Manuel Goepfert

Contact : metmap@orbifly.com




SOURCES & CREDITS :

   NOAA